Time;durP1;ratioP1;P1;durP2;ratioP2;P2;SDS_P1;SDS_P2;PMS_P1;PMS_P2;Temp;Humidity;BMP_temperature;BMP_pressure;BME280_temperature;BME280_humidity;BME280_pressure;Samples;Min_cycle;Max_cycle;Signal;HPM_P1;HPM_P2
2022/10/20 00:00:29;;;;;;;1.73;1.57;;;;;19.10;100735.00;;;;2068705;28;20309;-51
2022/10/20 00:01:30;;;;;;;1.90;1.70;;;;;19.10;100737.00;;;;2064277;28;20210;-50
2022/10/20 00:02:30;;;;;;;1.40;1.30;;;;;19.10;100734.00;;;;2061425;28;20234;-51
2022/10/20 00:03:31;;;;;;;2.53;1.73;;;;;19.10;100733.00;;;;2063723;28;20238;-50
2022/10/20 00:04:31;;;;;;;1.60;1.50;;;;;19.10;100737.00;;;;2065299;28;20211;-52
2022/10/20 00:05:31;;;;;;;1.83;1.63;;;;;19.10;100743.00;;;;2062654;28;20207;-50
2022/10/20 00:06:32;;;;;;;1.57;1.47;;;;;19.10;100735.00;;;;2062914;28;20686;-50
2022/10/20 00:07:32;;;;;;;2.00;1.80;;;;;19.10;100734.00;;;;2062949;28;20580;-51
2022/10/20 00:08:32;;;;;;;1.70;1.60;;;;;19.10;100742.00;;;;2069931;28;20791;-51
2022/10/20 00:09:33;;;;;;;1.77;1.67;;;;;19.00;100732.00;;;;2070485;28;20710;-51
2022/10/20 00:10:33;;;;;;;2.10;1.83;;;;;19.00;100738.00;;;;2071041;28;21173;-50
2022/10/20 00:11:33;;;;;;;2.10;1.90;;;;;19.10;100734.00;;;;2070935;28;20222;-50
2022/10/20 00:12:34;;;;;;;2.13;1.93;;;;;19.10;100734.00;;;;2068427;28;20257;-50
2022/10/20 00:13:34;;;;;;;1.87;1.43;;;;;19.10;100736.00;;;;2062668;28;20687;-50
2022/10/20 00:14:34;;;;;;;2.60;1.40;;;;;19.10;100734.00;;;;2065993;28;20269;-51
2022/10/20 00:15:35;;;;;;;1.53;1.43;;;;;19.10;100739.00;;;;2064230;28;20235;-51
2022/10/20 00:16:36;;;;;;;1.70;1.47;;;;;19.00;100731.00;;;;2070669;28;20216;-51
2022/10/20 00:17:36;;;;;;;1.63;1.35;;;;;19.00;100732.00;;;;2068415;28;20226;-50
2022/10/20 00:18:37;;;;;;;1.57;1.43;;;;;19.10;100720.00;;;;2069582;28;20214;-51
2022/10/20 00:19:37;;;;;;;2.17;1.63;;;;;19.00;100724.00;;;;2066830;28;20215;-51
2022/10/20 00:20:38;;;;;;;1.90;1.70;;;;;19.00;100721.00;;;;2062586;28;20215;-50
2022/10/20 00:21:39;;;;;;;2.55;1.75;;;;;19.10;100723.00;;;;2062547;28;20569;-51
2022/10/20 00:22:39;;;;;;;2.10;1.90;;;;;19.00;100724.00;;;;2068451;28;20217;-50
2022/10/20 00:23:40;;;;;;;2.17;1.98;;;;;19.10;100718.00;;;;2069165;28;20279;-50
2022/10/20 00:24:40;;;;;;;1.70;1.53;;;;;19.00;100720.00;;;;2066990;28;20635;-52
2022/10/20 00:25:41;;;;;;;1.57;1.47;;;;;19.00;100716.00;;;;2064978;28;20616;-51
2022/10/20 00:26:41;;;;;;;1.90;1.50;;;;;19.10;100721.00;;;;2062705;28;20218;-52
2022/10/20 00:27:41;;;;;;;1.77;1.67;;;;;19.10;100709.00;;;;2063079;28;20246;-52
2022/10/20 00:28:42;;;;;;;1.40;1.30;;;;;19.00;100719.00;;;;2070359;28;20224;-51
2022/10/20 00:29:42;;;;;;;2.70;1.60;;;;;19.00;100708.00;;;;2071373;28;20678;-52
2022/10/20 00:30:43;;;;;;;1.50;1.20;;;;;19.00;100701.00;;;;2071654;28;20221;-51
2022/10/20 00:31:43;;;;;;;1.93;1.60;;;;;19.00;100700.00;;;;2067684;28;20229;-51
2022/10/20 00:32:46;;;;;;;1.87;1.77;;;;;19.00;100699.00;;;;2062036;28;20221;-52
2022/10/20 00:33:46;;;;;;;1.60;1.50;;;;;19.00;100695.00;;;;2061006;28;20222;-51
2022/10/20 00:34:47;;;;;;;1.63;1.40;;;;;19.00;100695.00;;;;2071329;28;20309;-50
2022/10/20 00:35:48;;;;;;;2.13;1.80;;;;;19.00;100695.00;;;;2071605;28;20220;-50
2022/10/20 00:36:48;;;;;;;1.83;1.73;;;;;19.00;100689.00;;;;2070292;28;20210;-52
2022/10/20 00:37:49;;;;;;;1.67;1.57;;;;;19.10;100696.00;;;;2071056;28;20218;-50
2022/10/20 00:38:49;;;;;;;1.87;1.67;;;;;19.00;100688.00;;;;2062399;28;20214;-50
2022/10/20 00:39:50;;;;;;;1.60;1.50;;;;;19.10;100690.00;;;;2063089;28;20207;-52
2022/10/20 00:40:50;;;;;;;1.60;1.50;;;;;19.10;100686.00;;;;2064212;28;20210;-52
2022/10/20 00:41:51;;;;;;;1.70;1.60;;;;;19.00;100682.00;;;;2065676;28;20206;-51
2022/10/20 00:42:51;;;;;;;1.67;1.57;;;;;19.10;100711.00;;;;2063294;28;20665;-51
2022/10/20 00:44:02;;;;;;;1.70;1.60;;;;;19.00;100679.00;;;;2066914;28;20579;-50
2022/10/20 00:45:06;;;;;;;1.95;1.75;;;;;19.00;100672.00;;;;2065871;28;20214;-51
2022/10/20 00:46:06;;;;;;;1.85;1.30;;;;;19.10;100676.00;;;;2069644;28;20213;-52
2022/10/20 00:47:10;;;;;;;1.70;1.60;;;;;19.00;100670.00;;;;2060894;28;20218;-51
2022/10/20 00:48:21;;;;;;;1.75;1.65;;;;;19.00;100661.00;;;;2054081;28;20203;-51
2022/10/20 00:49:23;;;;;;;1.70;1.48;;;;;19.00;100665.00;;;;2046228;28;20859;-52
2022/10/20 00:50:26;;;;;;;2.25;1.75;;;;;19.00;100666.00;;;;2063450;28;20210;-50
2022/10/20 00:51:27;;;;;;;1.75;1.60;;;;;19.00;100658.00;;;;2070416;28;20228;-51
2022/10/20 00:52:28;;;;;;;2.13;1.50;;;;;19.00;100654.00;;;;2069182;28;20248;-50
2022/10/20 00:53:29;;;;;;;2.20;1.70;;;;;19.00;100666.00;;;;2070799;28;20320;-50
2022/10/20 00:54:30;;;;;;;2.47;1.70;;;;;19.00;100647.00;;;;2060904;28;20236;-52
2022/10/20 00:55:32;;;;;;;1.60;1.50;;;;;19.00;100640.00;;;;2054424;28;20212;-51
2022/10/20 00:56:32;;;;;;;1.80;1.55;;;;;19.00;100658.00;;;;2046901;28;20380;-52
2022/10/20 00:57:33;;;;;;;3.80;1.70;;;;;19.10;100654.00;;;;2055750;28;20802;-51
2022/10/20 00:58:33;;;;;;;1.63;1.40;;;;;19.10;100651.00;;;;2071313;28;20234;-52
2022/10/20 00:59:34;;;;;;;1.83;1.37;;;;;19.00;100649.00;;;;2067380;28;21105;-52
2022/10/20 01:00:36;;;;;;;2.30;1.77;;;;;19.00;100643.00;;;;2059853;28;20226;-50
2022/10/20 01:01:37;;;;;;;1.88;1.73;;;;;19.00;100647.00;;;;2070462;28;20264;-51
2022/10/20 01:02:37;;;;;;;2.00;1.80;;;;;19.00;100641.00;;;;2061862;28;20217;-51
2022/10/20 01:03:44;;;;;;;1.50;1.30;;;;;19.00;100643.00;;;;2071278;28;20210;-51
2022/10/20 01:04:48;;;;;;;1.90;1.70;;;;;19.00;100647.00;;;;2064211;28;20224;-49
2022/10/20 01:05:49;;;;;;;1.67;1.58;;;;;19.00;100641.00;;;;2070499;28;20214;-51
2022/10/20 01:06:49;;;;;;;1.60;1.50;;;;;19.00;100642.00;;;;2068665;28;20289;-51
2022/10/20 01:07:50;;;;;;;1.57;1.40;;;;;19.00;100646.00;;;;2070655;28;20265;-51
2022/10/20 01:08:50;;;;;;;2.00;1.70;;;;;19.00;100641.00;;;;2070953;28;20217;-51
2022/10/20 01:09:51;;;;;;;1.70;1.60;;;;;19.00;100648.00;;;;2069965;28;20292;-51
2022/10/20 01:11:00;;;;;;;1.53;1.43;;;;;19.00;100649.00;;;;2070636;28;20721;-50
2022/10/20 01:12:04;;;;;;;1.50;1.40;;;;;19.00;100645.00;;;;2070534;28;20218;-52
2022/10/20 01:13:14;;;;;;;1.70;1.60;;;;;19.00;100653.00;;;;2062898;28;20794;-50
2022/10/20 01:14:37;;;;;;;1.60;1.50;;;;;19.00;100659.00;;;;2057370;28;20219;-51
2022/10/20 01:15:59;;;;;;;2.50;1.77;;;;;19.00;100659.00;;;;2057561;28;20199;-52
2022/10/20 01:17:28;;;;;;;1.90;1.67;;;;;19.00;100656.00;;;;2065046;28;20221;-51
2022/10/20 01:18:38;;;;;;;1.40;1.30;;;;;19.00;100643.00;;;;2069733;28;20221;-54
2022/10/20 01:19:57;;;;;;;2.03;1.63;;;;;19.00;100652.00;;;;2070401;28;20452;-50
2022/10/20 01:21:04;;;;;;;1.75;1.63;;;;;19.00;100653.00;;;;2070324;28;20217;-51
2022/10/20 01:22:38;;;;;;;1.75;1.30;;;;;19.00;100648.00;;;;2069574;28;20996;-50
2022/10/20 01:23:50;;;;;;;1.70;1.60;;;;;19.00;100643.00;;;;2070965;28;20678;-52
2022/10/20 01:25:16;;;;;;;2.25;2.05;;;;;19.00;100643.00;;;;2069911;28;20206;-51
2022/10/20 01:26:40;;;;;;;1.75;1.65;;;;;19.00;100632.00;;;;2069752;28;20213;-51
2022/10/20 01:27:56;;;;;;;1.70;1.60;;;;;19.00;100629.00;;;;2069693;28;20216;-50
2022/10/20 01:29:18;;;;;;;2.17;1.52;;;;;19.00;100647.00;;;;2059698;28;20218;-51
2022/10/20 01:30:20;;;;;;;2.15;1.52;;;;;19.00;100653.00;;;;2050133;28;20305;-51
2022/10/20 01:31:47;;;;;;;1.63;1.52;;;;;19.00;100630.00;;;;2047863;28;20245;-51
2022/10/20 01:32:50;;;;;;;1.85;1.48;;;;;19.00;100628.00;;;;2056327;28;20211;-51
2022/10/20 01:34:10;;;;;;;1.92;1.58;;;;;19.00;100619.00;;;;2063525;28;20687;-51
2022/10/20 01:35:17;;;;;;;1.52;1.42;;;;;19.00;100632.00;;;;2069062;28;20300;-50
2022/10/20 01:36:20;;;;;;;1.73;1.63;;;;;19.00;100620.00;;;;2068714;28;20222;-50
2022/10/20 01:37:28;;;;;;;2.47;2.05;;;;;19.00;100625.00;;;;2068629;28;20642;-50
2022/10/20 01:38:52;;;;;;;2.20;1.70;;;;;19.00;100619.00;;;;2062106;28;20218;-51
2022/10/20 01:39:55;;;;;;;2.40;1.60;;;;;19.00;100624.00;;;;2069932;28;20217;-51
2022/10/20 01:41:24;;;;;;;1.73;1.63;;;;;19.00;100619.00;;;;2066723;28;20210;-50
2022/10/20 01:42:25;;;;;;;1.60;1.50;;;;;19.00;100615.00;;;;2065374;28;20242;-50
2022/10/20 01:43:26;;;;;;;2.00;1.80;;;;;19.00;100616.00;;;;2061819;28;20219;-51
2022/10/20 01:44:27;;;;;;;2.58;1.90;;;;;19.00;100614.00;;;;2054795;28;20223;-51
2022/10/20 01:45:29;;;;;;;1.52;1.20;;;;;19.00;100617.00;;;;2060935;28;20214;-55
2022/10/20 01:46:30;;;;;;;1.85;1.75;;;;;19.00;100597.00;;;;2062252;28;20305;-52
2022/10/20 01:47:30;;;;;;;2.03;1.60;;;;;19.00;100599.00;;;;2053669;28;20626;-50
2022/10/20 01:48:31;;;;;;;2.27;1.90;;;;;19.00;100596.00;;;;2047148;28;20640;-50
2022/10/20 01:49:32;;;;;;;1.65;1.45;;;;;19.00;100589.00;;;;2047170;28;20223;-51
2022/10/20 01:50:33;;;;;;;2.50;1.70;;;;;19.00;100603.00;;;;2066316;28;20210;-51
2022/10/20 01:51:34;;;;;;;2.00;1.50;;;;;19.00;100590.00;;;;2061981;28;21314;-49
2022/10/20 01:52:34;;;;;;;1.47;1.37;;;;;19.00;100583.00;;;;2054419;28;20325;-50
2022/10/20 01:53:35;;;;;;;1.73;1.63;;;;;19.00;100579.00;;;;2063599;28;20214;-51
2022/10/20 01:54:35;;;;;;;1.70;1.60;;;;;19.00;100572.00;;;;2063467;28;20210;-50
2022/10/20 01:55:36;;;;;;;1.77;1.67;;;;;19.00;100579.00;;;;2063644;28;20226;-52
2022/10/20 01:57:06;;;;;;;1.87;1.77;;;;;19.00;100571.00;;;;2063172;28;20229;-51
2022/10/20 01:58:44;;;;;;;2.10;1.80;;;;;19.00;100580.00;;;;2069207;28;20857;-51
2022/10/20 02:00:04;;;;;;;1.60;1.50;;;;;19.00;100572.00;;;;2057829;28;20298;-51
2022/10/20 02:01:17;;;;;;;1.73;1.60;;;;;19.00;100576.00;;;;2064487;28;20228;-52
2022/10/20 02:02:29;;;;;;;1.45;1.35;;;;;19.00;100560.00;;;;2061970;28;20302;-50
2022/10/20 02:03:50;;;;;;;1.63;1.50;;;;;19.00;100565.00;;;;2069577;28;20610;-51
2022/10/20 02:04:59;;;;;;;1.73;1.63;;;;;19.00;100568.00;;;;2057016;28;20223;-52
2022/10/20 02:06:02;;;;;;;2.80;1.85;;;;;19.00;100554.00;;;;2065718;28;20215;-49
2022/10/20 02:07:10;;;;;;;2.50;1.60;;;;;19.00;100565.00;;;;2070285;28;20221;-50
2022/10/20 02:08:22;;;;;;;2.10;1.90;;;;;19.00;100561.00;;;;2070112;28;20725;-51
2022/10/20 02:09:56;;;;;;;1.67;1.40;;;;;19.00;100553.00;;;;2069457;28;20577;-50
2022/10/20 02:10:59;;;;;;;1.95;1.80;;;;;19.00;100570.00;;;;2065721;28;20227;-50
2022/10/20 02:12:02;;;;;;;1.85;1.60;;;;;19.00;100567.00;;;;2063743;28;20224;-51
2022/10/20 02:13:03;;;;;;;2.00;1.80;;;;;19.00;100571.00;;;;2061409;28;20752;-51
2022/10/20 02:14:04;;;;;;;2.47;1.90;;;;;19.00;100566.00;;;;2057849;28;20223;-53
2022/10/20 02:15:05;;;;;;;2.22;1.77;;;;;19.00;100565.00;;;;2041026;28;20232;-50
2022/10/20 02:16:16;;;;;;;1.70;1.60;;;;;19.00;100556.00;;;;2058430;28;20255;-50
2022/10/20 02:17:17;;;;;;;2.55;1.50;;;;;19.00;100562.00;;;;2057085;28;20218;-52
2022/10/20 02:18:20;;;;;;;1.47;1.30;;;;;19.00;100548.00;;;;2066931;28;20241;-51
2022/10/20 02:19:22;;;;;;;1.65;1.55;;;;;19.00;100568.00;;;;2062062;28;20300;-50
2022/10/20 02:20:23;;;;;;;1.45;1.35;;;;;19.00;100557.00;;;;2063433;28;20423;-52
2022/10/20 02:21:23;;;;;;;1.60;1.50;;;;;19.00;100554.00;;;;2064146;28;20256;-51
2022/10/20 02:22:24;;;;;;;4.53;1.67;;;;;18.90;100550.00;;;;2068043;28;20282;-50
2022/10/20 02:23:26;;;;;;;2.00;1.70;;;;;19.00;100543.00;;;;2053737;28;20273;-51
2022/10/20 02:24:29;;;;;;;1.70;1.60;;;;;18.90;100547.00;;;;2062020;28;20442;-51
2022/10/20 02:25:29;;;;;;;2.10;1.90;;;;;19.00;100540.00;;;;2063504;28;20674;-51
2022/10/20 02:26:31;;;;;;;1.90;1.80;;;;;19.00;100539.00;;;;2069445;28;20392;-50
2022/10/20 02:27:34;;;;;;;1.70;1.58;;;;;18.90;100551.00;;;;2061884;28;20219;-51
2022/10/20 02:28:35;;;;;;;1.65;1.55;;;;;19.00;100533.00;;;;2049729;28;20222;-51
2022/10/20 02:29:37;;;;;;;1.87;1.70;;;;;19.00;100533.00;;;;2046076;28;20231;-53
2022/10/20 02:30:38;;;;;;;2.17;2.00;;;;;19.00;100529.00;;;;2062220;28;20973;-51
2022/10/20 02:31:38;;;;;;;1.80;1.70;;;;;19.00;100520.00;;;;2053146;28;20222;-50
2022/10/20 02:32:39;;;;;;;1.80;1.70;;;;;19.00;100519.00;;;;2040063;28;20294;-50
2022/10/20 02:33:40;;;;;;;2.00;1.80;;;;;19.00;100517.00;;;;2054093;28;20219;-50
2022/10/20 02:34:40;;;;;;;2.00;1.80;;;;;19.00;100511.00;;;;2056995;28;20219;-50
2022/10/20 02:35:42;;;;;;;2.10;1.80;;;;;19.00;100518.00;;;;2062676;28;20215;-50
2022/10/20 02:36:43;;;;;;;1.60;1.50;;;;;18.90;100502.00;;;;2062164;28;20211;-50
2022/10/20 02:37:44;;;;;;;1.90;1.80;;;;;19.00;100503.00;;;;2058759;28;20293;-50
2022/10/20 02:38:44;;;;;;;1.52;1.42;;;;;18.70;100505.00;;;;2066270;28;20695;-51
2022/10/20 02:39:45;;;;;;;2.00;1.80;;;;;19.00;100506.00;;;;2069671;28;20297;-51
2022/10/20 02:40:45;;;;;;;2.23;1.80;;;;;19.00;100506.00;;;;2070279;28;20222;-52
2022/10/20 02:41:46;;;;;;;1.57;1.37;;;;;19.00;100510.00;;;;2067261;28;20237;-52
2022/10/20 02:42:46;;;;;;;2.27;1.60;;;;;19.00;100503.00;;;;2070079;28;20213;-51
2022/10/20 02:43:47;;;;;;;1.63;1.53;;;;;18.90;100521.00;;;;2070562;28;20212;-50
2022/10/20 02:44:47;;;;;;;2.10;1.90;;;;;19.00;100517.00;;;;2070904;28;20210;-50
2022/10/20 02:45:48;;;;;;;2.60;1.70;;;;;18.90;100502.00;;;;2071294;28;20572;-52
2022/10/20 02:46:48;;;;;;;1.60;1.50;;;;;18.90;100503.00;;;;2059665;28;20651;-52
2022/10/20 02:47:49;;;;;;;1.70;1.60;;;;;18.90;100508.00;;;;2063424;28;20627;-50
2022/10/20 02:48:49;;;;;;;1.50;1.40;;;;;18.90;100503.00;;;;2063063;28;20206;-50
2022/10/20 02:49:49;;;;;;;1.70;1.60;;;;;18.90;100501.00;;;;2062684;28;20370;-51
2022/10/20 02:50:49;;;;;;;1.57;1.47;;;;;19.00;100503.00;;;;2062344;28;20278;-50
2022/10/20 02:51:50;;;;;;;1.70;1.60;;;;;18.90;100506.00;;;;2061467;28;20251;-52
2022/10/20 02:52:51;;;;;;;1.90;1.80;;;;;19.00;100510.00;;;;2062090;28;20679;-50
2022/10/20 02:53:53;;;;;;;1.70;1.60;;;;;18.90;100510.00;;;;2061892;28;20468;-50
2022/10/20 02:54:54;;;;;;;2.28;1.60;;;;;19.00;100511.00;;;;2067508;28;20616;-51
2022/10/20 02:55:54;;;;;;;2.07;1.60;;;;;18.90;100514.00;;;;2071187;28;20214;-51
2022/10/20 02:56:54;;;;;;;2.10;1.60;;;;;19.00;100521.00;;;;2071250;28;20309;-50
2022/10/20 02:57:55;;;;;;;2.30;2.10;;;;;19.00;100511.00;;;;2065206;28;20326;-52
2022/10/20 02:58:55;;;;;;;1.80;1.40;;;;;18.90;100516.00;;;;2063291;28;20226;-51
2022/10/20 02:59:56;;;;;;;1.60;1.50;;;;;19.00;100503.00;;;;2067465;28;20218;-52
2022/10/20 03:00:56;;;;;;;2.00;1.80;;;;;18.90;100499.00;;;;2066634;28;20269;-51
2022/10/20 03:01:56;;;;;;;2.13;1.93;;;;;18.90;100502.00;;;;2063501;28;20313;-50
2022/10/20 03:02:57;;;;;;;2.27;2.07;;;;;18.90;100495.00;;;;2067207;28;20287;-51
2022/10/20 03:03:58;;;;;;;1.97;1.77;;;;;18.90;100498.00;;;;2070835;28;20240;-52
2022/10/20 03:04:58;;;;;;;3.25;1.83;;;;;19.00;100502.00;;;;2070968;28;20253;-50
2022/10/20 03:06:09;;;;;;;2.30;2.10;;;;;19.00;100498.00;;;;2071249;28;20225;-51
2022/10/20 03:07:10;;;;;;;2.28;2.08;;;;;19.00;100488.00;;;;2059150;28;20210;-53
2022/10/20 03:08:11;;;;;;;2.13;1.60;;;;;19.00;100490.00;;;;2059515;28;20218;-51
2022/10/20 03:09:11;;;;;;;1.93;1.57;;;;;19.00;100498.00;;;;2062515;28;20329;-51
2022/10/20 03:10:11;;;;;;;2.27;1.90;;;;;19.00;100495.00;;;;2062887;28;20219;-52
2022/10/20 03:11:12;;;;;;;2.10;1.90;;;;;19.00;100495.00;;;;2063134;28;20206;-51
2022/10/20 03:12:13;;;;;;;1.93;1.73;;;;;19.00;100500.00;;;;2062961;28;20222;-50
2022/10/20 03:13:14;;;;;;;2.35;1.90;;;;;19.00;100489.00;;;;2060820;28;21601;-51
2022/10/20 03:14:15;;;;;;;2.57;1.60;;;;;18.90;100486.00;;;;2063108;28;20221;-51
2022/10/20 03:15:16;;;;;;;1.60;1.50;;;;;19.00;100481.00;;;;2063030;28;20224;-52
2022/10/20 03:16:16;;;;;;;1.80;1.70;;;;;18.90;100493.00;;;;2069127;28;20849;-51
2022/10/20 03:17:16;;;;;;;2.27;2.07;;;;;18.90;100484.00;;;;2062209;28;20477;-52
2022/10/20 03:18:17;;;;;;;1.93;1.77;;;;;18.90;100493.00;;;;2062141;28;20209;-51
2022/10/20 03:19:18;;;;;;;1.90;1.73;;;;;19.00;100489.00;;;;2063196;28;20238;-50
2022/10/20 03:20:18;;;;;;;1.87;1.50;;;;;18.90;100484.00;;;;2062740;28;20218;-50
2022/10/20 03:21:18;;;;;;;2.03;1.90;;;;;19.00;100487.00;;;;2068644;28;20461;-51
2022/10/20 03:22:19;;;;;;;1.60;1.50;;;;;18.90;100488.00;;;;2069661;28;20218;-51
2022/10/20 03:23:19;;;;;;;1.70;1.60;;;;;19.00;100484.00;;;;2070787;28;20278;-51
2022/10/20 03:24:20;;;;;;;1.87;1.73;;;;;18.90;100484.00;;;;2069188;28;20593;-51
2022/10/20 03:25:21;;;;;;;1.70;1.60;;;;;18.90;100474.00;;;;2070048;28;20724;-51
2022/10/20 03:26:21;;;;;;;2.17;1.97;;;;;18.90;100476.00;;;;2063871;28;20484;-52
2022/10/20 03:27:22;;;;;;;1.67;1.57;;;;;18.90;100475.00;;;;2062740;28;20464;-50
2022/10/20 03:28:22;;;;;;;2.87;1.80;;;;;18.90;100479.00;;;;2060924;28;20571;-50
2022/10/20 03:29:22;;;;;;;2.30;2.07;;;;;18.90;100477.00;;;;2059780;28;20218;-51
2022/10/20 03:30:23;;;;;;;1.93;1.73;;;;;18.90;100473.00;;;;2062303;28;20222;-52
2022/10/20 03:31:23;;;;;;;1.90;1.80;;;;;19.00;100474.00;;;;2065985;28;20213;-51
2022/10/20 03:32:24;;;;;;;1.87;1.77;;;;;18.90;100477.00;;;;2059797;28;20797;-51
2022/10/20 03:33:24;;;;;;;1.67;1.57;;;;;18.90;100476.00;;;;2054288;28;20892;-51
2022/10/20 03:34:24;;;;;;;1.97;1.80;;;;;18.90;100464.00;;;;2064893;28;20221;-50
2022/10/20 03:35:25;;;;;;;1.77;1.63;;;;;18.90;100470.00;;;;2070049;28;20218;-52
2022/10/20 03:36:26;;;;;;;2.20;2.00;;;;;18.90;100462.00;;;;2067657;28;20217;-51
2022/10/20 03:37:27;;;;;;;2.20;2.00;;;;;18.90;100459.00;;;;2060232;28;20222;-51
2022/10/20 03:38:27;;;;;;;2.13;1.90;;;;;18.90;100467.00;;;;2062604;28;20218;-50
2022/10/20 03:39:28;;;;;;;2.67;1.63;;;;;18.90;100465.00;;;;2062342;28;20215;-51
2022/10/20 03:40:28;;;;;;;2.07;1.87;;;;;18.90;100469.00;;;;2070743;28;20245;-51
2022/10/20 03:41:29;;;;;;;1.83;1.73;;;;;18.90;100461.00;;;;2069897;28;20210;-51
2022/10/20 03:42:29;;;;;;;2.20;1.70;;;;;18.90;100450.00;;;;2069434;28;20344;-52
2022/10/20 03:43:29;;;;;;;1.70;1.60;;;;;18.90;100453.00;;;;2070458;28;20716;-51
2022/10/20 03:44:30;;;;;;;2.27;1.90;;;;;18.70;100453.00;;;;2070031;28;20585;-50
2022/10/20 03:45:30;;;;;;;1.83;1.73;;;;;18.90;100452.00;;;;2070792;28;20642;-51
2022/10/20 03:46:30;;;;;;;2.50;1.90;;;;;18.90;100452.00;;;;2068085;28;20738;-51
2022/10/20 03:47:31;;;;;;;2.23;1.83;;;;;18.90;100454.00;;;;2069669;28;20641;-50
2022/10/20 03:48:31;;;;;;;2.30;2.00;;;;;18.90;100446.00;;;;2070618;28;20219;-51
2022/10/20 03:49:32;;;;;;;2.00;1.80;;;;;18.90;100443.00;;;;2070736;28;20291;-52
2022/10/20 03:50:33;;;;;;;2.45;2.25;;;;;18.90;100447.00;;;;2070176;28;20368;-51
2022/10/20 03:51:33;;;;;;;2.17;1.97;;;;;18.90;100450.00;;;;2070722;28;20209;-50
2022/10/20 03:52:33;;;;;;;2.43;1.70;;;;;18.90;100442.00;;;;2069620;28;20206;-51
2022/10/20 03:53:34;;;;;;;2.20;2.00;;;;;18.90;100450.00;;;;2062504;28;20245;-52
2022/10/20 03:54:35;;;;;;;1.80;1.70;;;;;18.90;100448.00;;;;2062278;28;20214;-52
2022/10/20 03:55:36;;;;;;;2.20;2.00;;;;;18.90;100437.00;;;;2062635;28;21025;-50
2022/10/20 03:56:36;;;;;;;2.28;1.60;;;;;18.90;100443.00;;;;2065621;28;20911;-51
2022/10/20 03:57:37;;;;;;;1.70;1.60;;;;;18.90;100441.00;;;;2069948;28;20234;-50
2022/10/20 03:58:37;;;;;;;1.80;1.70;;;;;18.90;100442.00;;;;2070449;28;20229;-50
2022/10/20 03:59:38;;;;;;;2.10;1.80;;;;;18.80;100437.00;;;;2070866;28;20260;-50
2022/10/20 04:00:38;;;;;;;1.95;1.85;;;;;18.90;100439.00;;;;2070772;28;20218;-53
2022/10/20 04:01:42;;;;;;;2.20;1.87;;;;;18.90;100374.00;;;;2070452;28;20876;-50
2022/10/20 04:02:43;;;;;;;2.00;1.90;;;;;18.90;100440.00;;;;2069489;28;20293;-51
2022/10/20 04:03:44;;;;;;;2.20;1.80;;;;;18.90;100440.00;;;;2069049;28;20678;-50
2022/10/20 04:04:44;;;;;;;1.93;1.53;;;;;18.90;100427.00;;;;2069731;28;20271;-52
2022/10/20 04:05:44;;;;;;;1.83;1.73;;;;;18.90;100431.00;;;;2070465;28;20296;-52
2022/10/20 04:06:45;;;;;;;2.30;1.90;;;;;18.90;100429.00;;;;2070689;28;20259;-51
2022/10/20 04:07:45;;;;;;;2.30;2.10;;;;;18.90;100430.00;;;;2070624;28;20277;-52
2022/10/20 04:08:46;;;;;;;2.20;2.00;;;;;18.90;100430.00;;;;2070685;28;20226;-51
2022/10/20 04:09:46;;;;;;;2.20;1.73;;;;;18.90;100436.00;;;;2065392;28;20218;-51
2022/10/20 04:10:47;;;;;;;2.00;1.90;;;;;18.90;100428.00;;;;2062639;28;20230;-51
2022/10/20 04:11:47;;;;;;;2.00;1.80;;;;;18.90;100422.00;;;;2062148;28;20225;-52
2022/10/20 04:12:47;;;;;;;1.80;1.70;;;;;18.90;100422.00;;;;2062304;28;20221;-51
2022/10/20 04:13:48;;;;;;;1.80;1.70;;;;;18.90;100426.00;;;;2066284;28;20294;-50
2022/10/20 04:14:48;;;;;;;2.40;2.03;;;;;18.90;100416.00;;;;2069582;28;20232;-51
2022/10/20 04:15:48;;;;;;;2.20;1.70;;;;;18.90;100430.00;;;;2070545;28;20221;-50
2022/10/20 04:16:49;;;;;;;2.10;2.00;;;;;18.90;100424.00;;;;2070463;28;20260;-49
2022/10/20 04:17:49;;;;;;;1.83;1.73;;;;;18.90;100419.00;;;;2070012;28;20309;-52
2022/10/20 04:18:53;;;;;;;1.73;1.63;;;;;18.90;100416.00;;;;2070448;28;20215;-51
2022/10/20 04:19:54;;;;;;;1.77;1.67;;;;;18.90;100416.00;;;;2066611;28;20304;-52
2022/10/20 04:20:54;;;;;;;2.07;1.90;;;;;18.90;100419.00;;;;2068839;28;21080;-50
2022/10/20 04:21:54;;;;;;;1.70;1.50;;;;;18.90;100414.00;;;;2069659;28;20453;-50
2022/10/20 04:22:55;;;;;;;1.97;1.80;;;;;18.90;100423.00;;;;2070505;28;20604;-51
2022/10/20 04:23:55;;;;;;;1.90;1.70;;;;;18.90;100416.00;;;;2070464;28;20224;-52
2022/10/20 04:24:55;;;;;;;2.47;2.27;;;;;18.90;100414.00;;;;2070519;28;20222;-52
2022/10/20 04:25:56;;;;;;;2.20;2.00;;;;;18.90;100410.00;;;;2070061;28;20225;-51
2022/10/20 04:26:56;;;;;;;1.70;1.60;;;;;18.90;100409.00;;;;2070540;28;20305;-51
2022/10/20 04:27:58;;;;;;;2.00;1.70;;;;;18.90;100421.00;;;;2070344;28;20217;-50
2022/10/20 04:28:58;;;;;;;2.22;2.00;;;;;18.90;100414.00;;;;2070628;28;20225;-51
2022/10/20 04:29:58;;;;;;;1.77;1.67;;;;;18.90;100412.00;;;;2070363;28;20220;-50
2022/10/20 04:30:59;;;;;;;2.17;1.97;;;;;18.90;100411.00;;;;2070046;28;20263;-51
2022/10/20 04:31:59;;;;;;;1.90;1.80;;;;;18.90;100405.00;;;;2067326;28;20210;-51
2022/10/20 04:32:59;;;;;;;2.07;1.83;;;;;18.90;100414.00;;;;2062300;28;20214;-51
2022/10/20 04:34:00;;;;;;;1.77;1.67;;;;;18.90;100400.00;;;;2062383;28;20588;-51
2022/10/20 04:35:00;;;;;;;1.93;1.63;;;;;18.90;100401.00;;;;2062565;28;20584;-51
2022/10/20 04:36:03;;;;;;;1.70;1.60;;;;;18.90;100391.00;;;;2062564;28;20710;-51
2022/10/20 04:37:03;;;;;;;1.90;1.70;;;;;18.90;100389.00;;;;2061898;28;20301;-50
2022/10/20 04:38:03;;;;;;;2.23;2.03;;;;;18.90;100385.00;;;;2062133;28;20219;-50
2022/10/20 04:39:05;;;;;;;2.10;1.90;;;;;18.90;100384.00;;;;2061444;28;20225;-50
2022/10/20 04:40:05;;;;;;;1.92;1.75;;;;;18.90;100387.00;;;;2060706;28;20228;-52
2022/10/20 04:41:06;;;;;;;2.00;1.90;;;;;18.90;100385.00;;;;2061486;28;20329;-51
2022/10/20 04:42:06;;;;;;;2.43;2.10;;;;;18.90;100386.00;;;;2060788;28;20229;-51
2022/10/20 04:43:06;;;;;;;1.53;1.43;;;;;18.90;100376.00;;;;2062116;28;20226;-52
2022/10/20 04:44:07;;;;;;;2.10;1.90;;;;;18.90;100377.00;;;;2062338;28;20218;-50
2022/10/20 04:45:08;;;;;;;1.60;1.50;;;;;18.90;100381.00;;;;2062498;28;20217;-52
2022/10/20 04:46:09;;;;;;;2.13;1.70;;;;;18.90;100380.00;;;;2062233;28;20214;-50
2022/10/20 04:47:09;;;;;;;2.27;1.93;;;;;18.90;100376.00;;;;2066890;28;20471;-52
2022/10/20 04:48:09;;;;;;;1.80;1.70;;;;;18.90;100375.00;;;;2070435;28;20464;-51
2022/10/20 04:49:10;;;;;;;3.23;2.20;;;;;18.90;100414.00;;;;2070057;28;20225;-50
2022/10/20 04:50:10;;;;;;;2.30;2.10;;;;;18.90;100368.00;;;;2069622;28;20229;-51
2022/10/20 04:51:12;;;;;;;2.20;2.00;;;;;18.90;100370.00;;;;2070091;28;20760;-51
2022/10/20 04:52:12;;;;;;;2.65;2.05;;;;;18.90;100357.00;;;;2068676;28;20271;-51
2022/10/20 04:53:13;;;;;;;1.80;1.70;;;;;18.90;100368.00;;;;2069588;28;20641;-50
2022/10/20 04:54:13;;;;;;;2.27;1.83;;;;;18.90;100373.00;;;;2069884;28;20580;-52
2022/10/20 04:55:13;;;;;;;2.20;1.80;;;;;18.90;100371.00;;;;2069596;28;20579;-51
2022/10/20 04:56:18;;;;;;;2.17;1.97;;;;;18.90;100284.00;;;;2069490;28;20209;-51
2022/10/20 04:57:19;;;;;;;1.60;1.50;;;;;18.90;100374.00;;;;2067191;28;20293;-52
2022/10/20 04:58:19;;;;;;;1.80;1.70;;;;;18.90;100365.00;;;;2069726;28;20237;-51
2022/10/20 04:59:19;;;;;;;1.80;1.67;;;;;18.80;100366.00;;;;2070626;28;20263;-52
2022/10/20 05:00:20;;;;;;;1.93;1.80;;;;;18.80;100358.00;;;;2066375;28;20210;-52
2022/10/20 05:01:21;;;;;;;2.00;1.80;;;;;18.80;100362.00;;;;2062339;28;20268;-52
2022/10/20 05:02:21;;;;;;;1.92;1.83;;;;;18.90;100353.00;;;;2061055;28;20302;-52
2022/10/20 05:03:22;;;;;;;2.17;2.00;;;;;18.90;100353.00;;;;2062311;28;20215;-51
2022/10/20 05:04:22;;;;;;;2.00;1.80;;;;;18.90;100352.00;;;;2062055;28;20225;-52
2022/10/20 05:05:22;;;;;;;1.97;1.73;;;;;18.90;100351.00;;;;2062360;28;20264;-51
2022/10/20 05:06:24;;;;;;;2.10;1.87;;;;;18.90;100347.00;;;;2066109;28;20240;-51
2022/10/20 05:07:25;;;;;;;4.80;2.05;;;;;18.90;100344.00;;;;2069578;28;20248;-52
2022/10/20 05:08:26;;;;;;;2.00;1.80;;;;;18.90;100346.00;;;;2061370;28;20245;-52
2022/10/20 05:09:26;;;;;;;1.80;1.67;;;;;18.90;100340.00;;;;2061391;28;20347;-52
2022/10/20 05:10:26;;;;;;;2.50;1.93;;;;;18.90;100332.00;;;;2069991;28;20218;-52